createdAt,value
2023-03-02T00:00:29.915Z,0
2023-03-02T00:01:29.859Z,0
2023-03-02T00:02:29.877Z,0
2023-03-02T00:03:30.135Z,0
2023-03-02T00:04:29.548Z,0
2023-03-02T00:05:30.035Z,0
2023-03-02T00:06:30.401Z,0
2023-03-02T00:07:29.745Z,0
2023-03-02T00:08:29.453Z,0
2023-03-02T00:09:29.922Z,0
2023-03-02T00:10:29.918Z,0
2023-03-02T00:11:29.693Z,0
2023-03-02T00:12:29.121Z,0
2023-03-02T00:13:29.596Z,0
2023-03-02T00:14:29.601Z,0
2023-03-02T00:15:29.294Z,0
2023-03-02T00:16:29.745Z,0
2023-03-02T00:17:29.239Z,0
2023-03-02T00:18:29.509Z,0
2023-03-02T00:19:29.819Z,0
2023-03-02T00:20:29.458Z,0
2023-03-02T00:21:29.445Z,0
2023-03-02T00:22:29.390Z,0
2023-03-02T00:23:29.375Z,0
2023-03-02T00:24:29.089Z,0
2023-03-02T00:25:29.639Z,0
2023-03-02T00:26:29.621Z,0
2023-03-02T00:27:29.548Z,0
2023-03-02T00:28:29.538Z,0
2023-03-02T00:29:29.239Z,0
2023-03-02T00:30:28.974Z,0
2023-03-02T00:31:29.526Z,0
2023-03-02T00:32:29.773Z,0
2023-03-02T00:33:29.439Z,0
2023-03-02T00:34:29.384Z,0
2023-03-02T00:35:29.347Z,0
2023-03-02T00:36:29.364Z,0
2023-03-02T00:37:29.355Z,0
2023-03-02T00:38:29.482Z,0
2023-03-02T00:39:28.786Z,0
2023-03-02T00:40:28.992Z,0
2023-03-02T00:41:29.233Z,0
2023-03-02T00:42:28.994Z,0
2023-03-02T00:43:28.949Z,0
2023-03-02T00:44:28.898Z,0
2023-03-02T00:45:28.911Z,0
2023-03-02T00:46:29.369Z,0
2023-03-02T00:47:28.863Z,0
2023-03-02T00:48:28.857Z,0
2023-03-02T00:49:29.067Z,0
2023-03-02T00:50:29.047Z,0
2023-03-02T00:51:29.124Z,0
2023-03-02T00:52:29.174Z,0
2023-03-02T00:53:29.173Z,0
2023-03-02T00:54:29.137Z,0
2023-03-02T00:55:28.331Z,0
2023-03-02T00:56:28.569Z,0
2023-03-02T00:57:28.799Z,0
2023-03-02T00:58:28.776Z,0
2023-03-02T00:59:28.558Z,0
2023-03-02T01:00:28.984Z,0
2023-03-02T01:01:29.516Z,0
2023-03-02T01:02:29.363Z,0
2023-03-02T01:03:28.869Z,0
2023-03-02T01:04:28.646Z,0
2023-03-02T01:05:28.616Z,0
2023-03-02T01:06:28.600Z,0
2023-03-02T01:07:28.945Z,0
2023-03-02T01:08:28.289Z,0
2023-03-02T01:09:28.824Z,0
2023-03-02T01:10:28.002Z,0
2023-03-02T01:11:28.736Z,0
2023-03-02T01:12:28.756Z,0
2023-03-02T01:13:28.697Z,0
2023-03-02T01:14:28.719Z,0
2023-03-02T01:15:28.140Z,0
2023-03-02T01:16:28.654Z,0
2023-03-02T01:17:28.353Z,0
2023-03-02T01:18:28.210Z,0
2023-03-02T01:19:28.307Z,0
2023-03-02T01:20:28.019Z,0
2023-03-02T01:21:28.274Z,0
2023-03-02T01:22:28.252Z,0
2023-03-02T01:23:28.272Z,0
2023-03-02T01:24:28.461Z,0
2023-03-02T01:25:28.267Z,0
2023-03-02T01:26:27.888Z,0
2023-03-02T01:27:28.393Z,0
2023-03-02T01:28:28.368Z,0
2023-03-02T01:29:28.090Z,0
2023-03-02T01:30:28.322Z,0
2023-03-02T01:31:28.036Z,0
2023-03-02T01:32:28.514Z,0
2023-03-02T01:33:59.562Z,0
2023-03-02T01:34:28.240Z,0
2023-03-02T01:35:28.179Z,0
2023-03-02T01:36:27.411Z,0
2023-03-02T01:37:28.211Z,0
2023-03-02T01:38:28.501Z,0
2023-03-02T01:39:28.192Z,0
2023-03-02T01:40:27.836Z,0
2023-03-02T01:41:28.106Z,0
2023-03-02T01:42:28.060Z,0
2023-03-02T01:43:28.071Z,0
2023-03-02T01:44:28.040Z,0
2023-03-02T01:45:28.198Z,0
2023-03-02T01:46:27.957Z,0
2023-03-02T01:47:27.687Z,0
2023-03-02T01:48:27.906Z,0
2023-03-02T01:49:27.623Z,0
2023-03-02T01:50:27.880Z,0
2023-03-02T01:51:27.327Z,0
2023-03-02T01:52:27.854Z,0
2023-03-02T01:53:27.563Z,0
2023-03-02T01:54:27.860Z,0
2023-03-02T01:55:27.873Z,0
2023-03-02T01:56:27.732Z,0
2023-03-02T01:57:27.265Z,0
2023-03-02T01:58:27.520Z,0
2023-03-02T01:59:27.678Z,0
2023-03-02T02:00:27.656Z,0
2023-03-02T02:01:27.387Z,0
2023-03-02T02:02:27.343Z,0
2023-03-02T02:03:27.576Z,0
2023-03-02T02:04:27.606Z,0
2023-03-02T02:05:27.285Z,0
2023-03-02T02:06:27.245Z,0
2023-03-02T02:07:27.479Z,0
2023-03-02T02:08:27.471Z,0
2023-03-02T02:09:27.203Z,0
2023-03-02T02:10:27.198Z,0
2023-03-02T02:11:27.882Z,0
2023-03-02T02:12:27.253Z,0
2023-03-02T02:13:27.802Z,0
2023-03-02T02:14:27.530Z,0
2023-03-02T02:15:27.709Z,0
2023-03-02T02:16:28.499Z,0
2023-03-02T02:17:27.966Z,0
2023-03-02T02:18:28.234Z,0
2023-03-02T02:19:27.659Z,0
2023-03-02T02:20:28.163Z,0
2023-03-02T02:21:27.867Z,0
2023-03-02T02:22:27.599Z,0
2023-03-02T02:23:28.178Z,0
2023-03-02T02:24:27.570Z,0
2023-03-02T02:25:28.181Z,0
2023-03-02T02:26:27.762Z,0
2023-03-02T02:27:27.842Z,0
2023-03-02T02:28:28.009Z,0
2023-03-02T02:29:27.501Z,0
2023-03-02T02:30:27.942Z,0
2023-03-02T02:31:28.161Z,0
2023-03-02T02:32:28.062Z,0
2023-03-02T02:33:27.639Z,0
2023-03-02T02:34:27.913Z,0
2023-03-02T02:35:28.035Z,0
2023-03-02T02:36:27.574Z,0
2023-03-02T02:37:27.300Z,0
2023-03-02T02:38:27.520Z,0
2023-03-02T02:39:27.475Z,0
2023-03-02T02:40:28.047Z,0
2023-03-02T02:41:28.035Z,0
2023-03-02T02:42:27.718Z,0
2023-03-02T02:43:28.045Z,0
2023-03-02T02:44:27.422Z,0
2023-03-02T02:45:28.011Z,0
2023-03-02T02:46:27.470Z,0
2023-03-02T02:47:27.905Z,0
2023-03-02T02:48:27.151Z,0
2023-03-02T02:49:27.834Z,0
2023-03-02T02:50:27.290Z,0
2023-03-02T02:51:27.281Z,0
2023-03-02T02:52:27.795Z,0
2023-03-02T02:53:27.781Z,0
2023-03-02T02:54:27.719Z,0
2023-03-02T02:55:27.731Z,0
2023-03-02T02:56:27.670Z,0
2023-03-02T02:57:27.121Z,0
2023-03-02T02:58:27.424Z,0
2023-03-02T02:59:27.430Z,0
2023-03-02T03:00:27.320Z,0
2023-03-02T03:01:27.763Z,0
2023-03-02T03:02:27.013Z,0
2023-03-02T03:03:26.730Z,0
2023-03-02T03:04:27.914Z,0
2023-03-02T03:05:27.229Z,0
2023-03-02T03:06:26.935Z,0
2023-03-02T03:07:27.434Z,0
2023-03-02T03:08:26.869Z,0
2023-03-02T03:09:27.115Z,0
2023-03-02T03:10:27.112Z,0
2023-03-02T03:11:26.822Z,0
2023-03-02T03:12:27.057Z,0
2023-03-02T03:13:26.787Z,0
2023-03-02T03:14:27.259Z,0
2023-03-02T03:15:27.088Z,0
2023-03-02T03:16:27.169Z,0
2023-03-02T03:17:27.221Z,0
2023-03-02T03:18:26.921Z,0
2023-03-02T03:19:26.397Z,0
2023-03-02T03:20:27.678Z,0
2023-03-02T03:21:27.644Z,0
2023-03-02T03:22:27.351Z,0
2023-03-02T03:23:27.650Z,0
2023-03-02T03:24:27.590Z,0
2023-03-02T03:25:27.407Z,0
2023-03-02T03:26:27.522Z,0
2023-03-02T03:27:27.517Z,0
2023-03-02T03:28:27.495Z,0
2023-03-02T03:29:27.213Z,0
2023-03-02T03:30:27.464Z,0
2023-03-02T03:31:28.101Z,0
2023-03-02T03:32:27.930Z,0
2023-03-02T03:50:00.948Z,0
2023-03-02T03:51:00.805Z,0
2023-03-02T03:52:00.263Z,0
2023-03-02T03:53:02.236Z,0
2023-03-02T03:54:00.803Z,0
2023-03-02T03:54:59.963Z,0
2023-03-02T03:56:00.197Z,0
2023-03-02T03:57:00.680Z,0
2023-03-02T03:58:00.652Z,0
2023-03-02T03:59:00.394Z,0
2023-03-02T04:00:00.580Z,0
2023-03-02T04:01:00.309Z,0
2023-03-02T04:02:00.825Z,0
2023-03-02T04:03:00.404Z,0
2023-03-02T04:04:00.250Z,0
2023-03-02T04:05:00.486Z,0
2023-03-02T04:06:00.562Z,0
2023-03-02T04:07:00.459Z,0
2023-03-02T04:08:00.405Z,0
2023-03-02T04:09:00.379Z,0
2023-03-02T04:09:59.852Z,0
2023-03-02T04:10:59.816Z,0
2023-03-02T04:12:00.364Z,0
2023-03-02T04:13:00.102Z,0
2023-03-02T04:13:59.755Z,0
2023-03-02T04:14:59.987Z,0
2023-03-02T04:16:00.312Z,0
2023-03-02T04:17:00.213Z,0
2023-03-02T04:17:59.926Z,0
2023-03-02T04:18:59.916Z,0
2023-03-02T04:19:59.902Z,0
2023-03-02T04:21:00.113Z,0
2023-03-02T04:22:00.180Z,0
2023-03-02T04:22:59.804Z,0
2023-03-02T04:23:59.792Z,0
2023-03-02T04:25:00.064Z,0
2023-03-02T04:25:59.749Z,0
2023-03-02T04:26:59.503Z,0
2023-03-02T04:27:59.964Z,0
2023-03-02T04:28:59.949Z,0
2023-03-02T04:29:59.906Z,0
2023-03-02T04:31:00.082Z,0
2023-03-02T04:32:00.100Z,0
2023-03-02T04:32:59.928Z,0
2023-03-02T04:33:59.312Z,0
2023-03-02T04:34:59.789Z,0
2023-03-02T04:35:59.790Z,0
2023-03-02T04:36:59.485Z,0
2023-03-02T04:37:59.887Z,0
2023-03-02T04:38:59.720Z,0
2023-03-02T04:39:59.174Z,0
2023-03-02T04:40:59.146Z,0
2023-03-02T04:41:59.644Z,0
2023-03-02T04:42:59.357Z,0
2023-03-02T04:43:59.361Z,0
2023-03-02T04:44:59.580Z,0
2023-03-02T04:45:59.305Z,0
2023-03-02T04:46:59.280Z,0
2023-03-02T04:47:59.248Z,0
2023-03-02T04:48:59.248Z,0
2023-03-02T04:49:59.247Z,0
2023-03-02T04:50:59.481Z,0
2023-03-02T04:51:59.421Z,0
2023-03-02T04:52:58.901Z,0
2023-03-02T04:53:59.597Z,0
2023-03-02T04:54:58.834Z,0
2023-03-02T04:55:59.329Z,0
2023-03-02T04:56:59.074Z,0
2023-03-02T04:57:59.027Z,0
2023-03-02T04:58:58.778Z,0
2023-03-02T04:59:58.746Z,0
2023-03-02T05:00:59.239Z,0
2023-03-02T05:01:59.156Z,0
2023-03-02T05:02:59.185Z,0
2023-03-02T05:04:00.711Z,0
2023-03-02T05:04:59.196Z,0
2023-03-02T05:05:58.584Z,0
2023-03-02T05:06:58.828Z,0
2023-03-02T05:07:59.355Z,0
2023-03-02T05:08:59.326Z,0
2023-03-02T05:09:59.482Z,0
2023-03-02T05:10:59.298Z,0
2023-03-02T05:11:58.780Z,0
2023-03-02T05:12:59.015Z,0
2023-03-02T05:13:58.974Z,0
2023-03-02T05:14:58.685Z,0
2023-03-02T05:15:59.065Z,0
2023-03-02T05:16:59.164Z,0
2023-03-02T05:17:59.128Z,0
2023-03-02T05:18:58.842Z,0
2023-03-02T05:19:59.077Z,0
2023-03-02T05:20:59.052Z,0
2023-03-02T05:21:59.055Z,0
2023-03-02T05:22:58.757Z,4
2023-03-02T05:23:58.755Z,0
2023-03-02T05:24:58.985Z,0
2023-03-02T05:25:59.099Z,4
2023-03-02T05:26:58.422Z,4
2023-03-02T05:27:58.401Z,0
2023-03-02T05:29:01.833Z,4
2023-03-02T05:29:58.600Z,4
2023-03-02T05:30:58.590Z,8
2023-03-02T05:31:59.570Z,8
2023-03-02T05:32:58.865Z,8
2023-03-02T05:33:59.111Z,12
2023-03-02T05:34:58.281Z,12
2023-03-02T05:35:58.984Z,16
2023-03-02T05:36:58.519Z,20
2023-03-02T05:37:58.502Z,24
2023-03-02T05:38:58.722Z,24
2023-03-02T05:39:58.701Z,32
2023-03-02T05:40:57.909Z,36
2023-03-02T05:41:58.792Z,40
2023-03-02T05:42:58.640Z,48
2023-03-02T05:43:58.355Z,56
2023-03-02T05:44:58.058Z,68
2023-03-02T05:45:58.563Z,76
2023-03-02T05:46:58.509Z,84
2023-03-02T05:47:58.512Z,96
2023-03-02T05:48:58.500Z,108
2023-03-02T05:49:57.967Z,120
2023-03-02T05:50:58.450Z,136
2023-03-02T05:51:58.434Z,152
2023-03-02T05:52:57.653Z,168
2023-03-02T05:53:57.894Z,184
2023-03-02T05:54:59.581Z,204
2023-03-02T05:55:58.373Z,220
2023-03-02T05:56:58.052Z,240
2023-03-02T05:57:58.407Z,260
2023-03-02T05:58:58.291Z,280
2023-03-02T05:59:58.015Z,300
2023-03-02T06:00:58.227Z,324
2023-03-02T06:01:58.353Z,344
2023-03-02T06:02:58.565Z,368
2023-03-02T06:03:57.903Z,396
2023-03-02T06:04:58.149Z,420
2023-03-02T06:05:57.757Z,444
2023-03-02T06:06:58.086Z,472
2023-03-02T06:07:58.078Z,496
2023-03-02T06:08:58.044Z,524
2023-03-02T06:09:57.758Z,548
2023-03-02T06:10:57.769Z,576
2023-03-02T06:11:57.718Z,604
2023-03-02T06:12:57.733Z,628
2023-03-02T06:13:58.031Z,656
2023-03-02T06:14:57.685Z,684
2023-03-02T06:15:57.715Z,712
2023-03-02T06:16:57.996Z,736
2023-03-02T06:17:57.600Z,760
2023-03-02T06:18:57.601Z,788
2023-03-02T06:19:57.546Z,816
2023-03-02T06:20:57.539Z,840
2023-03-02T06:21:57.503Z,864
2023-03-02T06:22:57.900Z,888
2023-03-02T06:23:57.276Z,912
2023-03-02T06:24:57.438Z,936
2023-03-02T06:25:57.397Z,960
2023-03-02T06:26:57.635Z,988
2023-03-02T06:27:57.620Z,1008
2023-03-02T06:29:01.352Z,1036
2023-03-02T06:29:57.595Z,1056
2023-03-02T06:30:57.597Z,1080
2023-03-02T06:31:57.974Z,1100
2023-03-02T06:32:57.291Z,1120
2023-03-02T06:33:57.250Z,1144
2023-03-02T06:34:57.373Z,1160
2023-03-02T06:35:58.427Z,1184
2023-03-02T06:36:57.578Z,1208
2023-03-02T06:37:57.561Z,1228
2023-03-02T06:38:57.934Z,1248
2023-03-02T06:39:57.796Z,1268
2023-03-02T06:40:57.485Z,1284
2023-03-02T06:41:57.476Z,1304
2023-03-02T06:42:57.466Z,1320
2023-03-02T06:43:57.448Z,1336
2023-03-02T06:44:57.812Z,1356
2023-03-02T06:45:58.065Z,1376
2023-03-02T06:46:57.620Z,1392
2023-03-02T06:47:57.596Z,1408
2023-03-02T06:48:57.319Z,1424
2023-03-02T06:49:57.310Z,1444
2023-03-02T06:50:57.282Z,1468
2023-03-02T06:51:57.249Z,1480
2023-03-02T06:52:57.481Z,1500
2023-03-02T06:53:57.003Z,1520
2023-03-02T06:54:57.466Z,1540
2023-03-02T06:55:57.175Z,1560
2023-03-02T06:56:57.147Z,1576
2023-03-02T06:57:57.384Z,1596
2023-03-02T06:58:56.832Z,1608
2023-03-02T06:59:57.329Z,1616
2023-03-02T07:00:57.553Z,1636
2023-03-02T07:01:57.046Z,1656
2023-03-02T07:02:57.050Z,1676
2023-03-02T07:03:57.026Z,1700
2023-03-02T07:04:57.222Z,1712
2023-03-02T07:05:57.013Z,1728
2023-03-02T07:06:56.917Z,1744
2023-03-02T07:07:57.194Z,1756
2023-03-02T07:08:56.896Z,1768
2023-03-02T07:09:57.134Z,1784
2023-03-02T07:10:56.573Z,1796
2023-03-02T07:11:56.814Z,1808
2023-03-02T07:12:56.520Z,1820
2023-03-02T07:13:57.028Z,1832
2023-03-02T07:14:57.075Z,1840
2023-03-02T07:15:56.715Z,1852
2023-03-02T07:16:57.478Z,1864
2023-03-02T07:17:56.738Z,1872
2023-03-02T07:18:56.651Z,1884
2023-03-02T07:19:56.377Z,1892
2023-03-02T07:20:56.867Z,1904
2023-03-02T07:21:56.836Z,1916
2023-03-02T07:22:56.562Z,1928
2023-03-02T07:23:56.849Z,1940
2023-03-02T07:24:56.538Z,1948
2023-03-02T07:25:56.746Z,1964
2023-03-02T07:26:56.472Z,1976
2023-03-02T07:27:56.471Z,1988
2023-03-02T07:28:56.436Z,2000
2023-03-02T07:29:56.591Z,2016
2023-03-02T07:30:56.337Z,2028
2023-03-02T07:31:56.206Z,2040
2023-03-02T07:32:56.766Z,2048
2023-03-02T07:33:56.348Z,2060
2023-03-02T07:34:56.389Z,2072
2023-03-02T07:35:56.787Z,2088
2023-03-02T07:36:56.254Z,2104
2023-03-02T07:37:56.233Z,2116
2023-03-02T07:38:56.220Z,2124
2023-03-02T07:39:56.460Z,2132
2023-03-02T07:40:56.154Z,2140
2023-03-02T07:41:56.156Z,2144
2023-03-02T07:42:56.106Z,2152
2023-03-02T07:43:56.112Z,2152
2023-03-02T07:44:55.821Z,2152
2023-03-02T07:45:56.414Z,2156
2023-03-02T07:46:56.649Z,2164
2023-03-02T07:47:56.021Z,2176
2023-03-02T07:48:56.312Z,2184
2023-03-02T07:49:56.276Z,2192
2023-03-02T07:50:55.935Z,2200
2023-03-02T07:51:56.210Z,2208
2023-03-02T07:52:57.212Z,2220
2023-03-02T07:53:55.881Z,2228
2023-03-02T07:54:56.133Z,2240
2023-03-02T07:55:56.099Z,2244
2023-03-02T07:56:56.095Z,2256
2023-03-02T07:57:56.061Z,2264
2023-03-02T07:58:55.781Z,2276
2023-03-02T07:59:55.959Z,2292
2023-03-02T08:00:55.751Z,2316
2023-03-02T08:01:56.742Z,2340
2023-03-02T08:02:55.887Z,2360
2023-03-02T08:03:55.667Z,2380
2023-03-02T08:04:55.975Z,2392
2023-03-02T08:05:55.533Z,2392
2023-03-02T08:06:55.611Z,2400
2023-03-02T08:07:55.847Z,2420
2023-03-02T08:08:55.826Z,2440
2023-03-02T08:09:55.577Z,2460
2023-03-02T08:10:55.293Z,2508
2023-03-02T08:11:55.754Z,2548
2023-03-02T08:12:55.480Z,2576
2023-03-02T08:13:55.701Z,2588
2023-03-02T08:14:55.436Z,2576
2023-03-02T08:15:55.892Z,2568
2023-03-02T08:16:55.387Z,2560
2023-03-02T08:17:55.436Z,2568
2023-03-02T08:18:56.419Z,2572
2023-03-02T08:19:55.362Z,2584
2023-03-02T08:20:55.488Z,2596
2023-03-02T08:21:55.717Z,2612
2023-03-02T08:22:55.559Z,2628
2023-03-02T08:23:55.834Z,2648
2023-03-02T08:24:55.506Z,2668
2023-03-02T08:25:55.200Z,2684
2023-03-02T08:26:54.938Z,2692
2023-03-02T08:27:55.453Z,2688
2023-03-02T08:28:55.165Z,2688
2023-03-02T08:29:55.131Z,2688
2023-03-02T08:30:55.378Z,2688
2023-03-02T08:31:55.676Z,2696
2023-03-02T08:32:55.591Z,2700
2023-03-02T08:33:55.042Z,2696
2023-03-02T08:34:55.280Z,2704
2023-03-02T08:35:57.908Z,2716
2023-03-02T08:36:55.026Z,2732
2023-03-02T08:37:55.233Z,2748
2023-03-02T08:38:54.811Z,2756
2023-03-02T08:39:54.961Z,2760
2023-03-02T08:40:54.922Z,2748
2023-03-02T08:41:55.127Z,2740
2023-03-02T08:42:54.864Z,2736
2023-03-02T08:43:55.094Z,2736
2023-03-02T08:44:54.878Z,2736
2023-03-02T08:45:55.082Z,2716
2023-03-02T08:46:55.063Z,2704
2023-03-02T08:47:54.470Z,2712
2023-03-02T08:48:54.842Z,2704
2023-03-02T08:49:55.611Z,2696
2023-03-02T08:50:54.736Z,2696
2023-03-02T08:51:54.436Z,2692
2023-03-02T08:52:55.060Z,2684
2023-03-02T08:53:54.895Z,2692
2023-03-02T08:54:55.099Z,2708
2023-03-02T08:55:54.594Z,2728
2023-03-02T08:56:54.308Z,2732
2023-03-02T08:57:54.549Z,2712
2023-03-02T08:58:54.604Z,2712
2023-03-02T08:59:54.532Z,2720
2023-03-02T09:00:54.503Z,2724
2023-03-02T09:01:54.696Z,2740
2023-03-02T09:02:54.734Z,2760
2023-03-02T09:03:55.775Z,2768
2023-03-02T09:04:55.041Z,2792
2023-03-02T09:05:54.719Z,2816
2023-03-02T09:06:54.245Z,2840
2023-03-02T09:07:54.120Z,2868
2023-03-02T09:08:54.455Z,2896
2023-03-02T09:09:54.605Z,2932
2023-03-02T09:10:54.556Z,2956
2023-03-02T09:11:54.529Z,2988
2023-03-02T09:12:54.240Z,3008
2023-03-02T09:13:54.491Z,3040
2023-03-02T09:14:54.449Z,3072
2023-03-02T09:15:54.482Z,3116
2023-03-02T09:16:54.363Z,3160
2023-03-02T09:17:54.416Z,3204
2023-03-02T09:18:54.435Z,3256
2023-03-02T09:19:54.112Z,3308
2023-03-02T09:20:54.088Z,3344
2023-03-02T09:21:53.840Z,3396
2023-03-02T09:22:54.306Z,3440
2023-03-02T09:23:54.183Z,3480
2023-03-02T09:24:54.436Z,3508
2023-03-02T09:25:54.383Z,3544
2023-03-02T09:26:54.326Z,3584
2023-03-02T09:27:54.097Z,3624
2023-03-02T09:28:54.292Z,3656
2023-03-02T09:29:54.291Z,3680
2023-03-02T09:30:53.989Z,3696
2023-03-02T09:31:54.586Z,3680
2023-03-02T09:32:54.534Z,3652
2023-03-02T09:33:54.217Z,3620
2023-03-02T09:34:53.924Z,3596
2023-03-02T09:35:54.205Z,3552
2023-03-02T09:36:53.891Z,3516
2023-03-02T09:37:54.425Z,3488
2023-03-02T09:38:54.214Z,3456
2023-03-02T09:39:54.278Z,3412
2023-03-02T09:40:54.138Z,3376
2023-03-02T09:41:54.129Z,3348
2023-03-02T09:42:53.785Z,3336
2023-03-02T09:43:53.770Z,3320
2023-03-02T09:44:53.477Z,3308
2023-03-02T09:45:53.665Z,3308
2023-03-02T09:46:53.975Z,3316
2023-03-02T09:47:53.676Z,3324
2023-03-02T09:48:53.403Z,3360
2023-03-02T09:49:53.912Z,3400
2023-03-02T09:50:53.874Z,3428
2023-03-02T09:51:53.346Z,3468
2023-03-02T09:52:53.899Z,3528
2023-03-02T09:53:53.598Z,3592
2023-03-02T09:54:53.300Z,3648
2023-03-02T09:55:53.812Z,3704
2023-03-02T09:56:53.881Z,3744
2023-03-02T09:57:53.618Z,3736
2023-03-02T09:58:53.494Z,3708
2023-03-02T09:59:53.462Z,3656
2023-03-02T10:00:53.719Z,3576
2023-03-02T10:01:53.418Z,3496
2023-03-02T10:02:53.964Z,3452
2023-03-02T10:03:54.193Z,3436
2023-03-02T10:04:53.663Z,3452
2023-03-02T10:05:53.398Z,3508
2023-03-02T10:06:53.342Z,3580
2023-03-02T10:07:53.327Z,3648
2023-03-02T10:08:53.060Z,3716
2023-03-02T10:09:53.523Z,3768
2023-03-02T10:10:53.255Z,3832
2023-03-02T10:11:53.514Z,3884
2023-03-02T10:12:53.224Z,3920
2023-03-02T10:13:54.655Z,3952
2023-03-02T10:14:53.444Z,3976
2023-03-02T10:15:53.834Z,4000
2023-03-02T10:16:52.904Z,4008
2023-03-02T10:17:53.464Z,4012
2023-03-02T10:18:53.328Z,4012
2023-03-02T10:19:53.116Z,4020
2023-03-02T10:20:53.323Z,4020
2023-03-02T10:21:53.349Z,4024
2023-03-02T10:22:53.027Z,4004
2023-03-02T10:23:53.278Z,4004
2023-03-02T10:24:52.511Z,3992
2023-03-02T10:25:52.770Z,4012
2023-03-02T10:26:52.990Z,4020
2023-03-02T10:27:53.021Z,4028
2023-03-02T10:28:53.042Z,4020
2023-03-02T10:29:53.182Z,3992
2023-03-02T10:30:53.113Z,3968
2023-03-02T10:31:53.132Z,3972
2023-03-02T10:32:53.153Z,3976
2023-03-02T10:33:52.334Z,3980
2023-03-02T10:34:53.172Z,3968
2023-03-02T10:35:53.413Z,3960
2023-03-02T10:36:52.819Z,3952
2023-03-02T10:37:53.332Z,3948
2023-03-02T10:38:53.052Z,3944
2023-03-02T10:39:52.802Z,3940
2023-03-02T10:40:52.988Z,3944
2023-03-02T10:41:52.785Z,3944
2023-03-02T10:42:52.578Z,3936
2023-03-02T10:43:52.696Z,3932
2023-03-02T10:44:53.059Z,3924
2023-03-02T10:45:53.234Z,3924
2023-03-02T10:46:53.043Z,3924
2023-03-02T10:47:52.641Z,3916
2023-03-02T10:48:56.468Z,3908
2023-03-02T10:49:52.301Z,3896
2023-03-02T10:50:52.812Z,3884
2023-03-02T10:51:52.281Z,3876
2023-03-02T10:53:08.327Z,3868
2023-03-02T10:53:52.792Z,3860
2023-03-02T10:54:52.767Z,3852
2023-03-02T10:55:52.516Z,3844
2023-03-02T10:56:52.472Z,3844
2023-03-02T10:57:52.435Z,3836
2023-03-02T10:58:53.812Z,3832
2023-03-02T10:59:52.490Z,3824
2023-03-02T11:00:52.825Z,3820
2023-03-02T11:01:52.897Z,3808
2023-03-02T11:02:52.410Z,3804
2023-03-02T11:03:52.348Z,3788
2023-03-02T11:04:53.535Z,3780
2023-03-02T11:05:52.629Z,3772
2023-03-02T11:06:54.450Z,3768
2023-03-02T11:07:52.852Z,3760
2023-03-02T11:08:53.148Z,3752
2023-03-02T11:09:53.084Z,3744
2023-03-02T11:10:52.527Z,3740
2023-03-02T11:11:53.050Z,3732
2023-03-02T11:12:52.733Z,3724
2023-03-02T11:13:52.228Z,3716
2023-03-02T11:14:52.703Z,3716
2023-03-02T11:15:53.262Z,3704
2023-03-02T11:16:52.808Z,3696
2023-03-02T11:17:52.686Z,3700
2023-03-02T11:18:52.642Z,3688
2023-03-02T11:19:52.627Z,3676
2023-03-02T11:20:52.619Z,3664
2023-03-02T11:21:52.328Z,3660
2023-03-02T11:22:52.869Z,3652
2023-03-02T11:23:52.300Z,3644
2023-03-02T11:24:52.784Z,3640
2023-03-02T11:25:52.516Z,3628
2023-03-02T11:26:52.562Z,3628
2023-03-02T11:27:52.494Z,3644
2023-03-02T11:28:52.485Z,3640
2023-03-02T11:29:52.737Z,3640
2023-03-02T11:30:52.447Z,3644
2023-03-02T11:31:53.113Z,3636
2023-03-02T11:32:53.071Z,3628
2023-03-02T11:33:53.246Z,3624
2023-03-02T11:34:52.635Z,3612
2023-03-02T11:35:52.903Z,3600
2023-03-02T11:36:52.604Z,3592
2023-03-02T11:37:52.092Z,3596
2023-03-02T11:38:52.568Z,3592
2023-03-02T11:40:01.836Z,3572
2023-03-02T11:40:54.027Z,3564
2023-03-02T11:41:52.349Z,3568
2023-03-02T11:42:52.550Z,3564
2023-03-02T11:43:52.224Z,3552
2023-03-02T11:44:52.227Z,3544
2023-03-02T11:45:52.222Z,3544
2023-03-02T11:46:52.449Z,3532
2023-03-02T11:48:06.648Z,3528
2023-03-02T11:48:52.445Z,3524
2023-03-02T11:49:52.417Z,3524
2023-03-02T11:50:52.400Z,3524
2023-03-02T11:52:04.661Z,3512
2023-03-02T11:52:52.376Z,3508
2023-03-02T11:53:52.347Z,3496
2023-03-02T11:54:52.118Z,3480
2023-03-02T11:55:52.334Z,3472
2023-03-02T11:56:52.026Z,3460
2023-03-02T11:57:52.036Z,3456
2023-03-02T11:58:51.990Z,3444
2023-03-02T11:59:51.987Z,3432
2023-03-02T12:00:52.251Z,3424
2023-03-02T12:01:52.660Z,3416
2023-03-02T12:02:52.192Z,3404
2023-03-02T12:03:52.282Z,3388
2023-03-02T12:04:51.917Z,3384
2023-03-02T12:05:52.128Z,3380
2023-03-02T12:06:51.854Z,3368
2023-03-02T12:07:52.019Z,3352
2023-03-02T12:08:52.103Z,3344
2023-03-02T12:09:51.572Z,3324
2023-03-02T12:10:52.065Z,3308
2023-03-02T12:11:52.038Z,3292
2023-03-02T12:12:51.775Z,3272
2023-03-02T12:13:51.999Z,3260
2023-03-02T12:14:51.474Z,3252
2023-03-02T12:15:51.965Z,3232
2023-03-02T12:16:51.851Z,3208
2023-03-02T12:17:52.093Z,3200
2023-03-02T12:18:51.680Z,3188
2023-03-02T12:19:51.959Z,3172
2023-03-02T12:20:51.821Z,3160
2023-03-02T12:21:51.646Z,3148
2023-03-02T12:22:51.589Z,3136
2023-03-02T12:23:51.870Z,3124
2023-03-02T12:24:51.308Z,3116
2023-03-02T12:25:51.793Z,3104
2023-03-02T12:26:51.541Z,3096
2023-03-02T12:27:51.561Z,3084
2023-03-02T12:28:51.495Z,3064
2023-03-02T12:29:51.231Z,3052
2023-03-02T12:30:51.460Z,3048
2023-03-02T12:31:52.063Z,3036
2023-03-02T12:32:51.694Z,3020
2023-03-02T12:33:51.738Z,3000
2023-03-02T12:34:51.765Z,2988
2023-03-02T12:35:51.944Z,2980
2023-03-02T12:36:51.901Z,2976
2023-03-02T12:37:51.634Z,2964
2023-03-02T12:38:51.460Z,2956
2023-03-02T12:39:51.321Z,2952
2023-03-02T12:40:51.323Z,2948
2023-03-02T12:41:51.211Z,2948
2023-03-02T12:42:51.525Z,2944
2023-03-02T12:43:50.851Z,2936
2023-03-02T12:44:51.271Z,2928
2023-03-02T12:45:51.621Z,2916
2023-03-02T12:46:51.002Z,2916
2023-03-02T12:47:53.414Z,2916
2023-03-02T12:48:53.578Z,2900
2023-03-02T12:49:51.444Z,2896
2023-03-02T12:50:51.155Z,2880
2023-03-02T12:51:52.040Z,2868
2023-03-02T12:52:50.900Z,2864
2023-03-02T12:53:51.150Z,2856
2023-03-02T12:54:51.326Z,2840
2023-03-02T12:55:51.316Z,2828
2023-03-02T12:56:51.836Z,2828
2023-03-02T12:57:51.768Z,2820
2023-03-02T12:58:51.522Z,2816
2023-03-02T12:59:51.744Z,2804
2023-03-02T13:00:51.730Z,2800
2023-03-02T13:01:51.184Z,2800
2023-03-02T13:02:51.863Z,2792
2023-03-02T13:03:51.333Z,2784
2023-03-02T13:04:51.384Z,2780
2023-03-02T13:05:51.106Z,2776
2023-03-02T13:06:51.356Z,2776
2023-03-02T13:07:51.487Z,2772
2023-03-02T13:08:51.502Z,2764
2023-03-02T13:10:02.815Z,2756
2023-03-02T13:10:52.151Z,2748
2023-03-02T13:11:51.975Z,2732
2023-03-02T13:12:51.210Z,2728
2023-03-02T13:13:52.429Z,2720
2023-03-02T13:14:51.667Z,2716
2023-03-02T13:15:51.366Z,2712
2023-03-02T13:16:51.890Z,2700
2023-03-02T13:17:51.846Z,2692
2023-03-02T13:18:51.331Z,2688
2023-03-02T13:19:51.830Z,2684
2023-03-02T13:20:51.825Z,2680
2023-03-02T13:21:51.779Z,2680
2023-03-02T13:22:51.568Z,2672
2023-03-02T13:23:51.732Z,2668
2023-03-02T13:24:51.801Z,2664
2023-03-02T13:25:51.776Z,2664
2023-03-02T13:26:51.501Z,2668
2023-03-02T13:27:51.380Z,2668
2023-03-02T13:28:51.795Z,2656
2023-03-02T13:29:51.139Z,2652
2023-03-02T13:30:51.913Z,2648
2023-03-02T13:31:51.529Z,2644
2023-03-02T13:32:51.369Z,2636
2023-03-02T13:33:51.594Z,2632
2023-03-02T13:34:51.045Z,2628
2023-03-02T13:35:51.542Z,2624
2023-03-02T13:36:51.024Z,2616
2023-03-02T13:37:51.481Z,2612
2023-03-02T13:38:50.985Z,2616
2023-03-02T13:39:51.537Z,2612
2023-03-02T13:40:51.251Z,2596
2023-03-02T13:41:51.515Z,2564
2023-03-02T13:42:51.503Z,2528
2023-03-02T13:43:51.436Z,2552
2023-03-02T13:44:51.457Z,2540
2023-03-02T13:45:51.573Z,2548
2023-03-02T13:46:51.190Z,2540
2023-03-02T13:47:51.132Z,2552
2023-03-02T13:48:55.148Z,2544
2023-03-02T13:49:51.379Z,2540
2023-03-02T13:50:51.058Z,2532
2023-03-02T13:51:51.103Z,2528
2023-03-02T13:52:50.775Z,2528
2023-03-02T13:53:51.261Z,2520
2023-03-02T13:54:51.285Z,2516
2023-03-02T13:55:51.021Z,2512
2023-03-02T13:56:51.472Z,2508
2023-03-02T13:57:51.246Z,2504
2023-03-02T13:58:50.932Z,2496
2023-03-02T13:59:51.524Z,2476
2023-03-02T14:00:50.885Z,2496
2023-03-02T14:01:50.973Z,2404
2023-03-02T14:02:50.873Z,2484
2023-03-02T14:03:50.844Z,2476
2023-03-02T14:04:51.740Z,2468
2023-03-02T14:05:50.837Z,2464
2023-03-02T14:06:50.573Z,2456
2023-03-02T14:07:50.770Z,2452
2023-03-02T14:08:51.037Z,2448